KMHT

Manchester Airport

Manchester, New Hampshire, USA
METAR KMHT 181353Z 20006KT 10SM FEW035 SCT050 BKN100 25/23 A2978 RMK AO2 SLP093 T02500228 $
Observed Flight Rules
Aug-18 @ 13:53 UTC (59 minutes ago) Visual Flight Rules
Wind Visibility Clouds
200° at 6 knots 10 miles
  • Few at 3,500' AGL
  • Scattered at 5,000' AGL
  • Broken at 10,000' AGL
Temperatures Readings
Current 25°C / 77°F
Dewpoint 23°C / 73°F
Humidity 89%
Altimeter 29.78" Hg
Pressure 1009.3 hPa
Elevation 81
METAR KMHT 181353Z 20006KT 10SM FEW035 SCT050 BKN100 25/23 A2978 RMK AO2 SLP093 T02500228 $
Observed Flight Rules
Aug-18 @ 13:53 UTC
(59 minutes ago)
VFR
Wind Visibility
200° at 6 knots 10 miles
Clouds
  • Few at 3,500' AGL
  • Scattered at 5,000' AGL
  • Broken at 10,000' AGL
Temperature Dewpoint
25°C / 77°F 23°C / 73°F
Humidity Altimeter Pressure
89% 29.78" Hg 1009.3 hPa